PWSweather.com
Personal Weather Stations
Station Observations
WILS01
Leuven, WilseleBE 3012

LeuvenWilseleBE 3012

Lat: 50.89518, Lon: 4.69741

Elevation: 120

Station Type: DAVIS VP2

Latest ConditionsUpdated 9:10:44 AM GMT+01:01 Sunday, Aug 31, 2014
Currently Today's Max Today's Min Today's Average
Temperature 62.1°F16.7°C 62.1°F16.7°C 56.7°F13.7°C 58.0°F14.4°C
Dew Point 59.5°F15.3°C 59.7°F15.4°C 55.2°F12.9°C 56.6°F13.7°C
Winds 0.9 mph WNW1.4 kmh WNW 2.9 mph SSW4.7 kmh SSW - 1.1 mph 1.8 kmh
Wind Gusts 1.6 mph2.6 kmh 3.6 mph5.8 kmh - -
Humidity 91% 96% 91% 95%
Pressure 29.97 in1014.9 mb 30.00 in1015.9 mb 29.96 in1014.6 mb -
Hour Temp Dew Point Humidity Winds Wind Gusts Pressure Precip Precip Rate Daily Precip Total
09:10 AM 62.1°F16.7°C 59.5°F15.3°C 91% 0.9 mph WNW1.4 kmh WNW 1.6 mph2.6 kmh 29.97 in1014.9 mb 0.00 in0.0 mm 0.00 in/hr0.0 mm/hr 0.00 in0.0 mm
09:00 AM 61.7°F16.5°C 59.7°F15.4°C 93% 0.9 mph W1.4 kmh W 1.8 mph2.9 kmh 29.98 in1015.2 mb 0.00 in0.0 mm 0.00 in/hr0.0 mm/hr 0.00 in0.0 mm
08:50 AM 61.3°F16.3°C 59.4°F15.2°C 93% 0.9 mph W1.4 kmh W 1.8 mph2.9 kmh 29.98 in1015.2 mb 0.00 in0.0 mm 0.00 in/hr0.0 mm/hr 0.00 in0.0 mm
08:39 AM 60.8°F16.0°C 59.0°F15.0°C 94% 0.9 mph SSW1.4 kmh SSW 0.9 mph1.4 kmh 29.98 in1015.2 mb 0.00 in0.0 mm 0.00 in/hr0.0 mm/hr 0.00 in0.0 mm
08:29 AM 60.3°F15.7°C 58.5°F14.7°C 94% 2.0 mph SW3.2 kmh SW 2.2 mph3.5 kmh 29.98 in1015.2 mb 0.00 in0.0 mm 0.00 in/hr0.0 mm/hr 0.00 in0.0 mm
08:19 AM 60.1°F15.6°C 58.6°F14.8°C 95% 0.9 mph SSW1.4 kmh SSW 0.9 mph1.4 kmh 29.97 in1014.9 mb 0.00 in0.0 mm 0.00 in/hr0.0 mm/hr 0.00 in0.0 mm
08:09 AM 59.5°F15.3°C 58.1°F14.5°C 95% 0.9 mph SW1.4 kmh SW 2.9 mph4.7 kmh 29.98 in1015.2 mb 0.00 in0.0 mm 0.00 in/hr0.0 mm/hr 0.00 in0.0 mm
07:58 AM 59.2°F15.1°C 58.1°F14.5°C 96% 0.9 mph SW1.4 kmh SW 1.1 mph1.8 kmh 29.98 in1015.2 mb 0.00 in0.0 mm 0.00 in/hr0.0 mm/hr 0.00 in0.0 mm
07:48 AM 59.0°F15.0°C 57.9°F14.4°C 96% 0.9 mph SW1.4 kmh SW 2.7 mph4.3 kmh 29.97 in1014.9 mb 0.00 in0.0 mm 0.00 in/hr0.0 mm/hr 0.00 in0.0 mm
07:38 AM 58.6°F14.8°C 57.6°F14.2°C 96% 2.0 mph SW3.2 kmh SW 1.6 mph2.6 kmh 29.97 in1014.9 mb 0.00 in0.0 mm 0.00 in/hr0.0 mm/hr 0.00 in0.0 mm
07:27 AM 58.3°F14.6°C 57.2°F14.0°C 96% 2.0 mph SW3.2 kmh SW 3.6 mph5.8 kmh 29.97 in1014.9 mb 0.00 in0.0 mm 0.00 in/hr0.0 mm/hr 0.00 in0.0 mm
07:17 AM 57.9°F14.4°C 56.8°F13.8°C 96% 0.9 mph SW1.4 kmh SW 0.9 mph1.4 kmh 29.97 in1014.9 mb 0.00 in0.0 mm 0.00 in/hr0.0 mm/hr 0.00 in0.0 mm
07:07 AM 57.7°F14.3°C 56.7°F13.7°C 96% 0.9 mph SW1.4 kmh SW 1.1 mph1.8 kmh 29.97 in1014.9 mb 0.00 in0.0 mm 0.00 in/hr0.0 mm/hr 0.00 in0.0 mm
06:57 AM 57.4°F14.1°C 56.3°F13.5°C 96% 0.9 mph WSW1.4 kmh WSW 1.3 mph2.1 kmh 29.97 in1014.9 mb 0.00 in0.0 mm 0.00 in/hr0.0 mm/hr 0.00 in0.0 mm
06:46 AM 57.0°F13.9°C 55.9°F13.3°C 96% 0.9 mph SW1.4 kmh SW 0.4 mph0.6 kmh 29.97 in1014.9 mb 0.00 in0.0 mm 0.00 in/hr0.0 mm/hr 0.00 in0.0 mm
06:36 AM 57.0°F13.9°C 55.9°F13.3°C 96% 0.9 mph SW1.4 kmh SW 0.9 mph1.4 kmh 29.97 in1014.9 mb 0.00 in0.0 mm 0.00 in/hr0.0 mm/hr 0.00 in0.0 mm
06:25 AM 56.8°F13.8°C 55.8°F13.2°C 96% 0.9 mph SW1.4 kmh SW 0.9 mph1.4 kmh 29.97 in1014.9 mb 0.00 in0.0 mm 0.00 in/hr0.0 mm/hr 0.00 in0.0 mm
06:15 AM 56.8°F13.8°C 55.8°F13.2°C 96% Calm Calm 0.4 mph0.6 kmh 29.96 in1014.6 mb 0.00 in0.0 mm 0.00 in/hr0.0 mm/hr 0.00 in0.0 mm
06:05 AM 56.8°F13.8°C 55.8°F13.2°C 96% 0.9 mph SW1.4 kmh SW 0.4 mph0.6 kmh 29.96 in1014.6 mb 0.00 in0.0 mm 0.00 in/hr0.0 mm/hr 0.00 in0.0 mm
05:55 AM 56.8°F13.8°C 55.8°F13.2°C 96% 0.9 mph SSW1.4 kmh SSW -- 29.96 in1014.6 mb 0.00 in0.0 mm 0.00 in/hr0.0 mm/hr 0.00 in0.0 mm
05:45 AM 56.8°F13.8°C 55.8°F13.2°C 96% 0.9 mph SSW1.4 kmh SSW 0.4 mph0.6 kmh 29.96 in1014.6 mb 0.00 in0.0 mm 0.00 in/hr0.0 mm/hr 0.00 in0.0 mm
05:34 AM 56.7°F13.7°C 55.6°F13.1°C 96% Calm Calm 0.2 mph0.3 kmh 29.96 in1014.6 mb 0.00 in0.0 mm 0.00 in/hr0.0 mm/hr 0.00 in0.0 mm
05:24 AM 56.7°F13.7°C 55.6°F13.1°C 96% Calm Calm 0.4 mph0.6 kmh 29.96 in1014.6 mb 0.00 in0.0 mm 0.00 in/hr0.0 mm/hr 0.00 in0.0 mm
05:14 AM 56.7°F13.7°C 55.6°F13.1°C 96% 0.9 mph SW1.4 kmh SW 0.9 mph1.4 kmh 29.96 in1014.6 mb 0.00 in0.0 mm 0.00 in/hr0.0 mm/hr 0.00 in0.0 mm
05:04 AM 56.7°F13.7°C 55.6°F13.1°C 96% 0.9 mph SW1.4 kmh SW 0.9 mph1.4 kmh 29.96 in1014.6 mb 0.00 in0.0 mm 0.00 in/hr0.0 mm/hr 0.00 in0.0 mm
04:53 AM 56.7°F13.7°C 55.6°F13.1°C 96% Calm Calm 1.6 mph2.6 kmh 29.96 in1014.6 mb 0.00 in0.0 mm 0.00 in/hr0.0 mm/hr 0.00 in0.0 mm
04:43 AM 56.7°F13.7°C 55.4°F13.0°C 95% 0.9 mph SW1.4 kmh SW 0.9 mph1.4 kmh 29.96 in1014.6 mb 0.00 in0.0 mm 0.00 in/hr0.0 mm/hr 0.00 in0.0 mm
04:33 AM 56.7°F13.7°C 55.2°F12.9°C 95% 0.9 mph SW1.4 kmh SW 1.6 mph2.6 kmh 29.96 in1014.6 mb 0.00 in0.0 mm 0.00 in/hr0.0 mm/hr 0.00 in0.0 mm
04:23 AM 56.8°F13.8°C 55.4°F13.0°C 95% 0.9 mph SW1.4 kmh SW 1.1 mph1.8 kmh 29.96 in1014.6 mb 0.00 in0.0 mm 0.00 in/hr0.0 mm/hr 0.00 in0.0 mm
04:13 AM 57.0°F13.9°C 55.6°F13.1°C 95% 0.9 mph SW1.4 kmh SW 1.1 mph1.8 kmh 29.96 in1014.6 mb 0.00 in0.0 mm 0.00 in/hr0.0 mm/hr 0.00 in0.0 mm
04:03 AM 57.2°F14.0°C 55.8°F13.2°C 95% 0.9 mph SSW1.4 kmh SSW 1.8 mph2.9 kmh 29.96 in1014.6 mb 0.00 in0.0 mm 0.00 in/hr0.0 mm/hr 0.00 in0.0 mm
03:52 AM 57.4°F14.1°C 55.9°F13.3°C 95% 0.9 mph SW1.4 kmh SW 0.9 mph1.4 kmh 29.97 in1014.9 mb 0.00 in0.0 mm 0.00 in/hr0.0 mm/hr 0.00 in0.0 mm
03:42 AM 57.4°F14.1°C 55.9°F13.3°C 95% 2.0 mph SW3.2 kmh SW 1.6 mph2.6 kmh 29.97 in1014.9 mb 0.00 in0.0 mm 0.00 in/hr0.0 mm/hr 0.00 in0.0 mm
03:32 AM 57.6°F14.2°C 56.1°F13.4°C 95% 0.9 mph SW1.4 kmh SW 0.7 mph1.1 kmh 29.98 in1015.2 mb 0.00 in0.0 mm 0.00 in/hr0.0 mm/hr 0.00 in0.0 mm
03:21 AM 57.6°F14.2°C 56.1°F13.4°C 95% 2.0 mph SW3.2 kmh SW 2.2 mph3.5 kmh 29.98 in1015.2 mb 0.00 in0.0 mm 0.00 in/hr0.0 mm/hr 0.00 in0.0 mm
03:11 AM 57.6°F14.2°C 56.1°F13.4°C 95% 2.9 mph SSW4.7 kmh SSW 2.9 mph4.7 kmh 29.98 in1015.2 mb 0.00 in0.0 mm 0.00 in/hr0.0 mm/hr 0.00 in0.0 mm
03:01 AM 57.6°F14.2°C 56.1°F13.4°C 95% 1.6 mph WSW2.6 kmh WSW 1.8 mph2.9 kmh 29.98 in1015.2 mb 0.00 in0.0 mm 0.00 in/hr0.0 mm/hr 0.00 in0.0 mm
02:51 AM 57.6°F14.2°C 56.1°F13.4°C 95% 2.0 mph SW3.2 kmh SW 2.9 mph4.7 kmh 29.98 in1015.2 mb 0.00 in0.0 mm 0.00 in/hr0.0 mm/hr 0.00 in0.0 mm
02:41 AM 57.6°F14.2°C 56.1°F13.4°C 95% 2.0 mph SW3.2 kmh SW 1.8 mph2.9 kmh 29.99 in1015.6 mb 0.00 in0.0 mm 0.00 in/hr0.0 mm/hr 0.00 in0.0 mm
02:30 AM 57.6°F14.2°C 56.1°F13.4°C 95% 0.9 mph SW1.4 kmh SW 2.0 mph3.2 kmh 29.99 in1015.6 mb 0.00 in0.0 mm 0.00 in/hr0.0 mm/hr 0.00 in0.0 mm
02:20 AM 57.7°F14.3°C 55.9°F13.3°C 94% 0.9 mph SSW1.4 kmh SSW 0.7 mph1.1 kmh 29.99 in1015.6 mb 0.00 in0.0 mm 0.00 in/hr0.0 mm/hr 0.00 in0.0 mm
02:10 AM 57.7°F14.3°C 55.9°F13.3°C 94% 0.9 mph WSW1.4 kmh WSW 1.8 mph2.9 kmh 29.99 in1015.6 mb 0.00 in0.0 mm 0.00 in/hr0.0 mm/hr 0.00 in0.0 mm
02:00 AM 57.9°F14.4°C 56.1°F13.4°C 94% 0.9 mph SW1.4 kmh SW 1.6 mph2.6 kmh 29.99 in1015.6 mb 0.00 in0.0 mm 0.00 in/hr0.0 mm/hr 0.00 in0.0 mm
01:49 AM 58.3°F14.6°C 56.5°F13.6°C 94% 0.9 mph SW1.4 kmh SW 1.1 mph1.8 kmh 29.99 in1015.6 mb 0.00 in0.0 mm 0.00 in/hr0.0 mm/hr 0.00 in0.0 mm
01:39 AM 58.3°F14.6°C 56.5°F13.6°C 94% 1.1 mph SW1.8 kmh SW 3.4 mph5.5 kmh 29.99 in1015.6 mb 0.00 in0.0 mm 0.00 in/hr0.0 mm/hr 0.00 in0.0 mm
01:29 AM 58.5°F14.7°C 56.7°F13.7°C 94% 2.0 mph WSW3.2 kmh WSW 0.4 mph0.6 kmh 29.99 in1015.6 mb 0.00 in0.0 mm 0.00 in/hr0.0 mm/hr 0.00 in0.0 mm
01:19 AM 58.5°F14.7°C 56.7°F13.7°C 94% 0.9 mph WSW1.4 kmh WSW 1.8 mph2.9 kmh 29.99 in1015.6 mb 0.00 in0.0 mm 0.00 in/hr0.0 mm/hr 0.00 in0.0 mm
01:09 AM 58.5°F14.7°C 56.7°F13.7°C 94% 1.1 mph SW1.8 kmh SW 0.2 mph0.3 kmh 30.00 in1015.9 mb 0.00 in0.0 mm 0.00 in/hr0.0 mm/hr 0.00 in0.0 mm
12:59 AM 58.5°F14.7°C 56.7°F13.7°C 94% 1.3 mph SW2.1 kmh SW 1.3 mph2.1 kmh 30.00 in1015.9 mb 0.00 in0.0 mm 0.00 in/hr0.0 mm/hr 0.00 in0.0 mm
12:48 AM 58.5°F14.7°C 56.7°F13.7°C 94% 0.9 mph SW1.4 kmh SW 0.4 mph0.6 kmh 30.00 in1015.9 mb 0.00 in0.0 mm 0.00 in/hr0.0 mm/hr 0.00 in0.0 mm
12:38 AM 58.5°F14.7°C 57.0°F13.9°C 95% 0.9 mph SW1.4 kmh SW 1.3 mph2.1 kmh 30.00 in1015.9 mb 0.00 in0.0 mm 0.00 in/hr0.0 mm/hr 0.00 in0.0 mm
12:27 AM 58.5°F14.7°C 57.0°F13.9°C 95% 0.9 mph SW1.4 kmh SW 0.7 mph1.1 kmh 30.00 in1015.9 mb 0.00 in0.0 mm 0.00 in/hr0.0 mm/hr 0.00 in0.0 mm
12:17 AM 58.6°F14.8°C 57.2°F14.0°C 95% 2.0 mph SW3.2 kmh SW 1.8 mph2.9 kmh 30.00 in1015.9 mb 0.00 in0.0 mm 0.00 in/hr0.0 mm/hr 0.00 in0.0 mm
12:07 AM 58.6°F14.8°C 57.2°F14.0°C 95% 2.0 mph SW3.2 kmh SW 2.5 mph4.0 kmh 30.00 in1015.9 mb 0.00 in0.0 mm 0.00 in/hr0.0 mm/hr 0.00 in0.0 mm